22ème Rallye Terre des Causses
Championnat de France des Rallyes sur Terre
1 1 CUOQ Jean-Marie/GRANDEMANGE Marielle Citroën C4 WRC FA 8W 33:28,6 1
2 3 MAURIN Julien/URAL Olivier Citroën DS3 WRC A 8W 33:48,3 +00:19,7 +00:19,7 1
3 4 DURBEC Thibault/RENUCCI Jacques-Julien Citroën DS3 WRC A 8W 35:03,1 +01:34,5 +01:14,8 1
4 11 GILBERT Quentin/JAMOUL Renaud Skoda Fabia R5 R 5 35:08,7 +01:40,1 +00:05,6
5 14 FALCO Jean-Marc/BOUERI Jonathan Peugeot 208 T16 R 5 35:09,9 +01:41,3 +00:01,2 1
6 18 PONS Xavier/ORIOL Julia Peugeot 208 T16 R 5 35:25,4 +01:56,8 +00:15,5
7 12 BERFA Jordan/AUGUSTIN Damien HUYNDAI i20 R5 R 5 35:30,4 +02:01,8 +00:05,0 1
8 9 FERAUD Cyrille/DUCHEMIN Aymeric Citroën C4 WRC FA 8W 36:47,7 +03:19,1 +01:17,3 1
9 5 CHAYNES Gary/TRIBOUT Christian Citroën C4 WRC FA 8W 37:10,6 +03:42,0 +00:22,9 1
10 16 PETIT Jean-Eric/MAURIN Mathieu Ford Fiesta R5 R 5 37:18,3 +03:49,7 +00:07,7 1
11 19 MORDACQ Arnaud/RATIER Marie-Noelle Mitsubishi Lancer Evo9 N 4 37:31,9 +04:03,3 +00:13,6 1
12 7 CLOT Charles/LEON Thierry Ford Fiesta WRC A 8W 37:40,5 +04:11,9 +00:08,6 1
13 54 PELLIER Laurent/NEYRET-GIGOT Benoît Peugeot 208 VTI R 2 37:47,3 +04:18,7 +00:06,8 3
14 59 RIBAUD Quentin/BALME Benoît Peugeot 208 VTI R 2 37:56,2 +04:27,6 +00:08,9 1 2 3
15 40 MARTI Christian/LAVIALE Jean-Marc Mitsubishi Lancer Evo9 N 4 38:02,7 +04:34,1 +00:06,5 1
16 60 LARIO Taisko/RYYNANEN Sami Peugeot 208 VTI R 2 38:06,1 +04:37,5 +00:03,4 3
17 61 GAGO Diogo/DEL BARRIO GARCIA Rodolfo Peugeot 208 VTI R 2 38:07,9 +04:39,3 +00:01,8 3
18 6 ROUSSET Eric/GOSSET Jean-David Citroën Xsara WRC FA 8W 38:08,7 +04:40,1 +00:00,8
19 8 RAOUX Jean-Michel/MAGAT Laurent Citroën DS3 WRC A 8W 38:12,6 +04:44,0 +00:03,9 1
20 57 LLARENA Efren/FERNANDEZ Sara Peugeot 208 VTI R 2 38:18,7 +04:50,1 +00:06,1 3
21 50 VEYRARD Didier/TARDY Vincent Subaru Impreza STI FN 4 38:19,0 +04:50,4 +00:00,3
22 27 TARDY Guillaume/CHOUDEY Marc-Emilien Subaru Impreza FA 8 38:28,6 +05:00,0 +00:09,6
23 36 SALIN Daniel/SALIN Brigitte Subaru Impreza WRX R 4 38:31,2 +05:02,6 +00:02,6
24 62 SAHILA Aki/SUORSA Rami Peugeot 208 VTI R 2 38:32,1 +05:03,5 +00:00,9 3
25 37 DESANGLES Yanis/THERON Nicolas Subaru Impreza WRX R 4 38:37,3 +05:08,7 +00:05,2
26 21 GIRAUD Emmanuel/GIRAUD Grégory Mitsubishi Lancer Evo8 FA 8 38:38,7 +05:10,1 +00:01,4
27 38 MOREL Jean-Luc/GIDEL Philippe Subaru Impreza WRX FN 4 38:42,4 +05:13,8 +00:03,7
28 17 FRAU Richard/GASTINEL Jean-Francois Ford Fiesta R5 R 5 38:42,7 +05:14,1 +00:00,3 1
29 10 "PIANO"/COTTU Paolo Subaru Impreza WRC FA 8W 38:51,1 +05:22,5 +00:08,4
30 15 BESSON Jean-Pascal/ROISSAC Patrice Skoda Fabia R5 R 5 38:54,5 +05:25,9 +00:03,4 1
31 20 GAIDOZ Hervé/RICHARD François Subaru Impreza WRX FA 8 39:06,0 +05:37,4 +00:11,5 1
32 30 CHIAVARO Daniel/DUPANLOUP Alexandra Subaru Impreza Sti FA 8 39:12,2 +05:43,6 +00:06,2
33 39 BENIER Thomas/PRASSE Cédric Subaru Impreza WRX N 4 39:14,4 +05:45,8 +00:02,2 1
34 70 PINHEIRO Karl-Alexandre/LE FLOCH Franck Peugeot 208 VTI R 2 39:16,5 +05:47,9 +00:02,1 3
35 63 WAGEMANS Joachim/DU PAN Anton Peugeot 208 VTI R 2 39:21,2 +05:52,6 +00:04,7 3
36 72 TAVENEAU Sam/POINT Clément Peugeot 208 VTI R 2 39:32,3 +06:03,7 +00:11,1 3
37 42 CONDAMINES Florian/DELMAS Cyril Subaru Impreza N 4 39:33,9 +06:05,3 +00:01,6
38 65 BOSCH Florentin/LAZZARINI Jean-Paul Peugeot 208 VTI R 2 39:34,7 +06:06,1 +00:00,8 3
39 83 MARCHAL Eddy/JOLE Damien Citroën Saxo T4 FA 6K 39:42,9 +06:14,3 +00:08,2 1
40 43 PUEL Gérard/PUEL Caroline Mitsubishi Lancer Evo8 FN 4 39:49,1 +06:20,5 +00:06,2
41 75 VENTURINI Henri/CORONA Fabrice Peugeot 208 VTI R 2 39:50,0 +06:21,4 +00:00,9 3
42 23 FILLAYRE Jacques/DERRE Cyril Mitsubishi Lancer Evo4 FA 8 39:50,4 +06:21,8 +00:00,4
43 64 HAIGH-SMITH Ashley/BURNS Niall Peugeot 208 VTI R 2 39:50,9 +06:22,3 +00:00,5 3
44 41 FONTAINE Fabien/FONTAINE Bastien Mitsubishi Lancer Evo5 FN 4 39:57,1 +06:28,5 +00:06,2
45 53 VITAL Jean-Pierre/DECOUZON Pierre Citroën Saxo VTS F2 13 39:59,1 +06:30,5 +00:02,0 1 2
46 81 VIALLE Lilian/GHIRARDELLO Manuel Renault Clio R3 R 3 40:03,7 +06:35,1 +00:04,6 1 2
47 44 GUIGNARD Eric/MEFFRE Didier Subaru Impreza N 4 40:04,4 +06:35,8 +00:00,7
48 124 MASCLAUX Arnaud/CORMERAIS Loïc Renault Clio Ragnotti F2 14 40:09,7 +06:41,1 +00:05,3 1 2
49 87 SALGUES Gilles/MOUYSSET Jérôme Citroën Saxo T4 FA 6K 40:15,0 +06:46,4 +00:05,3
50 52 JULIA David/AUBERTIN Ludovic Peugeot 206 Rc F2 14 40:16,6 +06:48,0 +00:01,6 1 2
51 25 GIORDANENGO Jimmy/DELAMOTTE Alexis Mitsubishi Lancer Evo7 FA 8 40:22,9 +06:54,3 +00:06,3
52 116 RAYNAUD Gabriel/JULIEN William Seat Ibiza GTI F2 14 40:29,8 +07:01,2 +00:06,9 1 2
53 46 LOPEZ Yannick/LOPEZ Brice Subaru Impreza WRX N 4 40:39,0 +07:10,4 +00:09,2
54 48 PRIOLO Laurent/DALMAS Yannick Mitsubishi Lancer Evo9 N 4 40:39,2 +07:10,6 +00:00,2
55 94 JOUINES Jean/CHABBERT Martin Opel Adam Rally R FR2 40:39,2 +07:10,6
56 73 MOLLARD Alexandre/EYMIN PETOT Nicolas Peugeot 208 VTI R 2 40:43,6 +07:15,0 +00:04,4 3
57 95 GOUY Quentin/THILLIEZ Quentin Citroën C2 R2 R 2 40:45,4 +07:16,8 +00:01,8
58 86 MARCOBAL Thierry/MARCOBAL-BASTIDE Cantin Citroën Saxo T4 FA 6K 40:48,4 +07:19,8 +00:03,0
59 69 AUTIERO Matthieu/ANDREU Axel Peugeot 208 VTI R 2 40:59,3 +07:30,7 +00:10,9 3
60 132 SABATIER Florent/SANTIAGO Thomas Peugeot 106 S16 FA 6 41:14,2 +07:45,6 +00:14,9 1 2
61 76 COLNEY Thierry/FORTMANN Patrick Citroën DS3 R3 R 3 41:20,5 +07:51,9 +00:06,3 1 2
62 80 GUINCHARD Emmanuel/CHATELAIN Mickaël Peugeot 207 Rc R 3 41:26,2 +07:57,6 +00:05,7
63 90 COLOMBE Geoffroy/FABREGUE Régis Peugeot 206 XS FA 6K 41:28,9 +08:00,3 +00:02,7
64 71 RAMBAUD Sébastien/RICOU Brice Peugeot 208 VTI R 2 41:33,1 +08:04,5 +00:04,2 3
65 99 FOTIA Anthony/MILLET Kévin Ford Fiesta R2 R 2 41:35,1 +08:06,5 +00:02,0
66 113 BLANCK Lionel/BLANCK Arnaud Peugeot 206 Rc F2 14 41:36,4 +08:07,8 +00:01,3
67 35 MORDACQ Laurent/MORTIER Hervé Mitsubishi Lancer Evo9 R 4 41:38,5 +08:09,9 +00:02,1 1
68 102 SOUFFEZ Frédéric/PRUVOST Astrid Peugeot 206 Rc FA 7 41:48,1 +08:19,5 +00:09,6 1 2
69 89 CREPIN Maude/FRANCOIS Léa Citroën Saxo T4 FA 6K 41:51,4 +08:22,8 +00:03,3
70 91 BERTON Charlotte/TAILLANDIER Thomas Citroën Saxo T4 FA 6K 41:51,5 +08:22,9 +00:00,1
71 125 BELLIARDO Daniel/BRAQUET Jean-Baptiste Peugeot 306 S16 FN 3 41:52,3 +08:23,7 +00:00,8
72 98 DEFANTE Romain/TEMPIER Romain Ford Fiesta R2 R 2 41:52,4 +08:23,8 +00:00,1
73 85 GRIMAUD Roger/GRIMAUD Laurent Citroën Saxo T4 FA 6K 42:00,9 +08:32,3 +00:08,5
74 97 MARGAILLAN Hugo/POUJOL Sébastien Ford Fiesta R2 R 2 42:12,8 +08:44,2 +00:11,9
75 111 PILLARD Cédric/NOHARET Laurent Peugeot 206 Rc F2 14 42:17,7 +08:49,1 +00:04,9 1 2
76 28 GIL Stéphane/MORGET Arnaud Subaru Impreza WRX FA 8 42:20,5 +08:51,9 +00:02,8
77 96 PUVERIC Gilles/LE BORGNE Didier Peugeot 208 VTI R 2 42:27,6 +08:59,0 +00:07,1
78 77 DAZY Jean-Pierre/LOIZEAUX Didier Renault Clio R3 R 3 42:31,4 +09:02,8 +00:03,8 1 2
79 117 ROUCOULY Mathieu/GILHODES Jean-Louis Peugeot 309 GTI 16S F2 14 42:34,5 +09:05,9 +00:03,1
80 149 RICHAUD Pascal/SENDJAKEDINE Mikael Suzuki Swift Sport FN 2 42:46,0 +09:17,4 +00:11,5 1 2
81 115 MORARD Philippe/GROLIER Cédric Citroën ZX 16V F2 14 42:49,5 +09:20,9 +00:03,5
82 88 QUARROZ Damien/VOLPI Cécile Citroën Saxo T4 FA 6K 42:51,9 +09:23,3 +00:02,4
83 107 ROCHER Arnaud/PAULHAN Sabine Renault Clio RS FA 7 42:53,6 +09:25,0 +00:01,7
84 138 CAYLA Corentin/DUMAS Bastien Citroën Saxo VTS F2 13 43:07,0 +09:38,4 +00:13,4
85 120 RIEU Vincent/DEIXONNE Charles Renault Clio Ragnotti F2 14 43:07,6 +09:39,0 +00:00,6
86 92 BRENIAUX Sébastien/JACQUES Anthony Peugeot 206 XS FA 6K 43:09,0 +09:40,4 +00:01,4
87 67 JAMET Jérémy/SECACHE Michaël Peugeot 208 VTI R 2 43:14,9 +09:46,3 +00:05,9 3
88 33 ROUGIER Régis/SOGNO Emilien Subaru Impreza WRX FA 8 43:15,3 +09:46,7 +00:00,4
89 145 BRISSON Eddy/MASSON Pascal Suzuki Swift FN 2 43:18,9 +09:50,3 +00:03,6
90 112 REGORD Hervé/REGORD Camille Peugeot 205 GTI F2 14 43:28,6 +10:00,0 +00:09,7 1 2
91 127 LESCURE Philippe/ESCAICH Bertrand Peugeot 306 S16 FN 3 43:29,3 +10:00,7 +00:00,7
92 134 RALITE Christophe/ABBAL Marie Peugeot 106 S16 FA 6 43:51,5 +10:22,9 +00:22,2
93 78 BOUCHET Guillaume/BLAMPEY Fabien Peugeot 207 Rc R 3 43:53,5 +10:24,9 +00:02,0
94 135 RAMEL Olivier/BODENMANN Jacques-Victor Peugeot 106 GT FA 6 43:58,1 +10:29,5 +00:04,6
95 126 VANTILLARD Jean-Marc/DARRAS Pascaline Peugeot 206 Rc FN 3 44:06,3 +10:37,7 +00:08,2
96 45 ECK Jean-Luc/ECK Aurélien Subaru Impreza N 4 44:07,2 +10:38,6 +00:00,9
97 136 FOURNIER Nicolas/VATTEAU Kévin Peugeot 206 XS F2 13 44:16,7 +10:48,1 +00:09,5
98 146 DOLGOPYATOFF Damien/FRANCOIS Solene Suzuki Swift FN 2 45:23,3 +11:54,7 +01:06,6
99 151 ROCHE Ivan/GREVOT Florian Peugeot 106 XSI F2 12 45:27,0 +11:58,4 +00:03,7 1 2
100 106 GELLUSSEAU Luc/DEJOUX Charly Peugeot 306 S16 FA 7 45:28,3 +11:59,7 +00:01,3
101 142 BRENGUES Jean-Marie/BRENGUES Mélanie Peugeot 205 GTI F2 13 45:41,3 +12:12,7 +00:13,0
102 139 GELY Michel/VALENTIN Cédric Peugeot 206 XS F2 13 45:52,0 +12:23,4 +00:10,7
103 47 CAMPAGNOLI Gabriele/ARENA Nicola Subaru Impreza WRX N 4 45:58,6 +12:30,0 +00:06,6
104 129 GAGNEUR Hervé/LEIBENGUTH Christophe Peugeot 306 S16 FN 3 46:07,3 +12:38,7 +00:08,7
105 152 VUITTENEZ Victorien/COTE COLISSON Maxime Peugeot 106 XSI FN 1 46:19,4 +12:50,8 +00:12,1
106 140 VAYSSE Adrien/LAURENS Clément Peugeot 106 S16 F2 13 46:21,0 +12:52,4 +00:01,6
107 150 VAILLE Mickaël/SAVA-LOPEZ Sabrina Peugeot 205 GTI FN 2 46:25,7 +12:57,1 +00:04,7
108 148 LATIEZE Yvan/GOUY Cindy Peugeot 106 S16 FN 2 46:30,5 +13:01,9 +00:04,8
109 104 FRELAUT Yohann/CASSAGNADE Pascal Peugeot 206 Rc FA 7 47:13,9 +13:45,3 +00:43,4
110 153 CEUGNET Sébastien/LUCON Pascal Peugeot 106 XSI FN 1 47:23,0 +13:54,4 +00:09,1
111 108 GUILLON Jean-Luc/GUILLON Thibault Peugeot 206 GT FA 7 47:39,5 +14:10,9 +00:16,5
112 105 GAUTHIER Bernard/BLANQUET Muriel Peugeot 306 S16 FA 7 47:50,8 +14:22,2 +00:11,3
113 137 RAKOTOMALALA Andry/GORGET Chloé Peugeot 106 S16 F2 13 48:14,2 +14:45,6 +00:23,4
114 130 RESSOUCHE Charlotte/BARDOUX Pauline Ford Fiesta ST N 3 48:27,1 +14:58,5 +00:12,9
115 26 GLEY Jean-Pierre/AUBANEL Aurélien B.M.W. 325 iX FA 8 48:49,0 +15:20,4 +00:21,9
116 31 MARON-GIRARD Alain/GRENIER Bernard Mitsubishi Lancer Evo9 FA 8 48:51,2 +15:22,6 +00:02,2
117 154 BES Yves/LE PICHON Christelle Peugeot 106 XR F2 11 49:04,5 +15:35,9 +00:13,3
118 141 PICARD Erick/PONTILLE Hervé Dacia Logan F2 13 50:45,7 +17:17,1 +01:41,2
119 147 DI PAOLO Alain/MORILLON Frederika Peugeot 106 S16 FN 2 52:04,1 +18:35,5 +01:18,4
120 155 SOUBIROUX Vincent/VIGUIE Florian Renault Clio F2 11 52:45,9 +19:17,3 +00:41,8
121 144 TODESCHINI Florent/PORCHERON Giovanni Dacia Logan F2 13 54:09,8 +20:41,2 +01:23,9
122 119 MOULIN François/BONNET Dorine Renault Clio RS F2 14 58:30,1 +25:01,5 +04:20,3
123 103 TEVELLE Cédric/FACCIO Alexandra Peugeot 206 Rc FA 7 1:02:33,8 +29:05,2 +04:03,7
Clt Equipage Voiture Gr/Cl Temps Ecart 1er Ecart préc. Catégories
Commentaires: © PatricK Soft  
(Temps forfaitaires=couleur bleue)
Classés:123

Epreuve: Groupe: Catégorie:

 
Retour
Classement après ES5-La Bouyssière - Foissac (6.000 km)